Time;durP1;ratioP1;P1;durP2;ratioP2;P2;SDS_P1;SDS_P2;PMS_P1;PMS_P2;Temp;Humidity;BMP_temperature;BMP_pressure;BME280_temperature;BME280_humidity;BME280_pressure;Samples;Min_cycle;Max_cycle;Signal;HPM_P1;HPM_P2
2022/07/23 00:02:02;;;;;;;13.17;9.17;;;;;;;;;;5034649;28;20425;-49
2022/07/23 00:04:28;;;;;;;15.00;9.57;;;;;;;;;;5034005;28;20760;-50
2022/07/23 00:06:53;;;;;;;14.20;9.20;;;;;;;;;;5044879;28;20518;-49
2022/07/23 00:09:19;;;;;;;14.93;9.77;;;;;;;;;;5037670;28;20801;-50
2022/07/23 00:11:45;;;;;;;11.73;9.37;;;;;;;;;;5039654;28;20487;-50
2022/07/23 00:14:11;;;;;;;13.07;9.80;;;;;;;;;;5034909;28;20520;-50
2022/07/23 00:16:37;;;;;;;8.80;7.90;;;;;;;;;;5034317;28;20419;-50
2022/07/23 00:19:03;;;;;;;15.73;9.53;;;;;;;;;;5034481;28;20448;-49
2022/07/23 00:21:29;;;;;;;22.53;10.40;;;;;;;;;;5034250;28;21015;-49
2022/07/23 00:23:55;;;;;;;14.27;10.10;;;;;;;;;;5043090;28;20431;-50
2022/07/23 00:26:21;;;;;;;11.83;9.67;;;;;;;;;;5041785;28;20412;-49
2022/07/23 00:28:47;;;;;;;10.77;8.97;;;;;;;;;;5033666;28;20414;-49
2022/07/23 00:31:13;;;;;;;10.03;8.40;;;;;;;;;;5041104;28;20796;-50
2022/07/23 00:33:39;;;;;;;14.50;9.70;;;;;;;;;;5044826;28;20543;-50
2022/07/23 00:36:05;;;;;;;14.67;10.97;;;;;;;;;;5042471;28;20401;-50
2022/07/23 00:38:31;;;;;;;14.37;9.40;;;;;;;;;;5044130;28;20867;-49
2022/07/23 00:40:57;;;;;;;13.17;9.53;;;;;;;;;;5038798;28;20426;-51
2022/07/23 00:43:23;;;;;;;17.30;11.20;;;;;;;;;;5034109;28;20897;-51
2022/07/23 00:45:49;;;;;;;21.73;10.97;;;;;;;;;;5033480;28;20835;-51
2022/07/23 00:48:15;;;;;;;16.33;11.20;;;;;;;;;;5047847;28;20478;-52
2022/07/23 00:50:42;;;;;;;16.97;10.33;;;;;;;;;;5053898;28;20776;-49
2022/07/23 00:53:09;;;;;;;12.73;9.80;;;;;;;;;;5052766;28;20516;-50
2022/07/23 00:55:35;;;;;;;13.80;11.37;;;;;;;;;;5051854;28;20403;-50
2022/07/23 00:58:01;;;;;;;22.10;11.10;;;;;;;;;;5043872;28;20398;-50
2022/07/23 01:00:28;;;;;;;22.10;10.30;;;;;;;;;;5049748;28;20401;-49
2022/07/23 01:02:54;;;;;;;14.23;10.43;;;;;;;;;;5053043;28;20404;-49
2022/07/23 01:05:22;;;;;;;12.77;10.20;;;;;;;;;;5051644;28;20820;-50
2022/07/23 01:07:49;;;;;;;15.20;11.00;;;;;;;;;;5053195;28;20435;-49
2022/07/23 01:10:31;;;;;;;17.07;11.87;;;;;;;;;;5050373;28;20393;-50
2022/07/23 01:12:57;;;;;;;19.87;11.87;;;;;;;;;;5039069;28;20462;-49
2022/07/23 01:15:23;;;;;;;18.23;12.53;;;;;;;;;;5043681;28;20394;-49
2022/07/23 01:17:49;;;;;;;15.47;12.90;;;;;;;;;;5040534;28;20950;-49
2022/07/23 01:20:15;;;;;;;22.23;11.93;;;;;;;;;;5032804;28;20883;-49
2022/07/23 01:22:41;;;;;;;14.13;11.57;;;;;;;;;;5039899;28;20437;-50
2022/07/23 01:25:07;;;;;;;17.33;12.63;;;;;;;;;;5032111;28;20442;-50
2022/07/23 01:27:33;;;;;;;28.10;13.20;;;;;;;;;;5032303;28;20396;-49
2022/07/23 01:30:00;;;;;;;19.10;12.60;;;;;;;;;;5035002;28;20436;-51
2022/07/23 01:32:26;;;;;;;12.63;11.27;;;;;;;;;;5034321;28;20871;-50
2022/07/23 01:34:52;;;;;;;16.93;11.50;;;;;;;;;;5034066;28;20418;-50
2022/07/23 01:37:18;;;;;;;22.70;12.80;;;;;;;;;;5035683;28;20391;-51
2022/07/23 01:39:44;;;;;;;20.17;12.00;;;;;;;;;;5030885;28;20777;-49
2022/07/23 01:42:10;;;;;;;16.10;12.60;;;;;;;;;;5037036;28;20429;-50
2022/07/23 01:44:36;;;;;;;14.47;11.57;;;;;;;;;;5032493;28;20505;-49
2022/07/23 01:47:02;;;;;;;13.37;11.37;;;;;;;;;;5045696;28;20423;-50
2022/07/23 01:49:28;;;;;;;14.30;11.77;;;;;;;;;;5031995;28;20409;-51
2022/07/23 01:52:01;;;;;;;14.80;11.57;;;;;;;;;;5047655;28;20470;-50
2022/07/23 01:54:27;;;;;;;16.47;11.97;;;;;;;;;;5030813;28;20481;-49
2022/07/23 01:56:53;;;;;;;18.20;13.33;;;;;;;;;;5032634;28;20386;-50
2022/07/23 01:59:19;;;;;;;17.00;12.60;;;;;;;;;;5031236;28;20408;-49
2022/07/23 02:01:45;;;;;;;22.03;14.07;;;;;;;;;;5043375;28;20774;-50
2022/07/23 02:04:11;;;;;;;20.07;13.37;;;;;;;;;;5034024;28;20510;-50
2022/07/23 02:06:37;;;;;;;19.10;13.33;;;;;;;;;;5042287;28;20397;-50
2022/07/23 02:09:03;;;;;;;19.60;13.40;;;;;;;;;;5031847;28;20406;-49
2022/07/23 02:11:29;;;;;;;22.97;13.83;;;;;;;;;;5043212;28;20462;-49
2022/07/23 02:13:55;;;;;;;18.80;14.27;;;;;;;;;;5032256;28;20516;-50
2022/07/23 02:16:21;;;;;;;17.40;13.03;;;;;;;;;;5043777;28;20405;-50
2022/07/23 02:18:47;;;;;;;21.13;13.87;;;;;;;;;;5035852;28;20963;-50
2022/07/23 02:21:13;;;;;;;22.57;14.73;;;;;;;;;;5038471;28;20501;-49
2022/07/23 02:23:39;;;;;;;18.80;13.23;;;;;;;;;;5035197;28;20465;-50
2022/07/23 02:26:05;;;;;;;22.13;14.57;;;;;;;;;;5043422;28;20907;-50
2022/07/23 02:28:31;;;;;;;22.53;13.90;;;;;;;;;;5033851;28;20447;-51
2022/07/23 02:30:57;;;;;;;20.13;13.67;;;;;;;;;;5046070;28;20386;-50
2022/07/23 02:33:23;;;;;;;21.77;13.43;;;;;;;;;;5039677;28;20556;-50
2022/07/23 02:35:49;;;;;;;21.53;14.80;;;;;;;;;;5043376;28;20404;-49
2022/07/23 02:38:15;;;;;;;19.80;14.50;;;;;;;;;;5048812;28;20412;-50
2022/07/23 02:40:41;;;;;;;26.90;13.17;;;;;;;;;;5036339;28;20505;-49
2022/07/23 02:43:07;;;;;;;20.40;14.13;;;;;;;;;;5051863;28;20902;-50
2022/07/23 02:45:33;;;;;;;22.00;14.30;;;;;;;;;;5046941;28;20762;-50
2022/07/23 02:47:59;;;;;;;19.57;14.53;;;;;;;;;;5051389;28;20401;-51
2022/07/23 02:50:25;;;;;;;21.77;17.00;;;;;;;;;;5049115;28;21011;-51
2022/07/23 02:52:51;;;;;;;21.63;13.73;;;;;;;;;;5051594;28;20454;-50
2022/07/23 02:55:17;;;;;;;25.43;15.80;;;;;;;;;;5051641;28;20426;-51
2022/07/23 02:57:43;;;;;;;24.10;16.20;;;;;;;;;;5038816;28;20393;-50
2022/07/23 03:00:09;;;;;;;21.77;15.87;;;;;;;;;;5045589;28;20421;-50
2022/07/23 03:02:35;;;;;;;30.23;15.93;;;;;;;;;;5012091;28;20452;-49
2022/07/23 03:05:01;;;;;;;25.33;16.60;;;;;;;;;;5044280;28;20444;-49
2022/07/23 03:07:27;;;;;;;29.83;16.47;;;;;;;;;;5049260;28;20478;-50
2022/07/23 03:09:53;;;;;;;24.73;16.87;;;;;;;;;;5051563;28;20491;-48
2022/07/23 03:12:19;;;;;;;39.30;17.60;;;;;;;;;;5041506;28;20516;-50
2022/07/23 03:14:45;;;;;;;24.73;16.27;;;;;;;;;;5039664;28;20406;-50
2022/07/23 03:17:11;;;;;;;26.30;16.63;;;;;;;;;;5035485;28;20983;-49
2022/07/23 03:19:38;;;;;;;26.57;16.10;;;;;;;;;;5034267;28;20409;-50
2022/07/23 03:22:04;;;;;;;28.40;16.60;;;;;;;;;;5043233;28;20432;-49
2022/07/23 03:27:15;;;;;;;21.70;15.43;;;;;;;;;;5025744;28;20779;-50
2022/07/23 03:29:41;;;;;;;30.10;17.03;;;;;;;;;;5034911;28;20437;-49
2022/07/23 03:32:07;;;;;;;21.57;14.90;;;;;;;;;;5034903;28;20433;-50
2022/07/23 03:34:33;;;;;;;28.33;16.10;;;;;;;;;;5035083;28;20405;-49
2022/07/23 03:36:59;;;;;;;29.47;16.63;;;;;;;;;;5040148;28;20420;-50
2022/07/23 03:39:25;;;;;;;23.10;14.93;;;;;;;;;;5040600;28;20446;-50
2022/07/23 03:41:51;;;;;;;27.47;15.80;;;;;;;;;;5046178;28;20414;-51
2022/07/23 03:44:17;;;;;;;27.10;15.63;;;;;;;;;;5043254;28;20826;-50
2022/07/23 03:46:43;;;;;;;23.23;15.50;;;;;;;;;;5047201;28;20511;-50
2022/07/23 03:49:09;;;;;;;19.37;14.87;;;;;;;;;;5041596;28;20448;-49
2022/07/23 03:51:35;;;;;;;20.00;14.60;;;;;;;;;;5040067;28;20873;-50
2022/07/23 03:54:01;;;;;;;23.63;15.53;;;;;;;;;;5048300;28;20442;-49
2022/07/23 03:56:27;;;;;;;23.33;15.87;;;;;;;;;;5034747;28;20422;-49
2022/07/23 03:58:52;;;;;;;23.97;15.67;;;;;;;;;;5033987;28;20987;-50
2022/07/23 04:01:18;;;;;;;31.30;18.10;;;;;;;;;;5034760;28;20413;-50
2022/07/23 04:03:46;;;;;;;31.70;19.33;;;;;;;;;;5034274;28;20408;-50
2022/07/23 04:06:12;;;;;;;29.13;17.87;;;;;;;;;;5043305;28;20513;-49
2022/07/23 04:08:38;;;;;;;26.50;18.77;;;;;;;;;;5034444;28;20873;-50
2022/07/23 04:11:04;;;;;;;26.27;17.53;;;;;;;;;;5043299;28;20528;-50
2022/07/23 04:13:30;;;;;;;30.97;18.40;;;;;;;;;;5034680;28;20435;-49
2022/07/23 04:15:56;;;;;;;26.87;16.23;;;;;;;;;;5036288;28;20901;-50
2022/07/23 04:18:23;;;;;;;22.10;15.80;;;;;;;;;;5037676;28;20451;-50
2022/07/23 04:20:49;;;;;;;25.07;17.47;;;;;;;;;;5044377;28;20424;-50
2022/07/23 04:23:15;;;;;;;29.13;17.20;;;;;;;;;;5034430;28;20399;-49
2022/07/23 04:25:41;;;;;;;23.87;16.47;;;;;;;;;;5041779;28;20961;-49
2022/07/23 04:28:07;;;;;;;22.50;16.27;;;;;;;;;;5036110;28;20441;-51
2022/07/23 04:30:33;;;;;;;24.80;17.63;;;;;;;;;;5040405;28;20400;-50
2022/07/23 04:32:59;;;;;;;21.00;16.30;;;;;;;;;;5035672;28;20965;-50
2022/07/23 04:35:25;;;;;;;31.17;16.00;;;;;;;;;;5038184;28;20837;-50
2022/07/23 04:37:51;;;;;;;61.17;18.30;;;;;;;;;;5042580;28;20421;-50
2022/07/23 04:40:17;;;;;;;34.30;17.77;;;;;;;;;;5052881;28;20516;-49
2022/07/23 04:42:43;;;;;;;41.77;17.37;;;;;;;;;;5038733;28;20386;-50
2022/07/23 04:45:09;;;;;;;73.53;18.43;;;;;;;;;;5032193;28;20416;-50
2022/07/23 04:47:35;;;;;;;17.97;14.53;;;;;;;;;;5033962;28;21183;-49
2022/07/23 04:50:01;;;;;;;30.70;17.07;;;;;;;;;;5037921;28;20954;-50
2022/07/23 04:52:27;;;;;;;29.17;17.50;;;;;;;;;;5053803;28;20468;-49
2022/07/23 04:54:53;;;;;;;78.97;18.63;;;;;;;;;;5040817;28;20475;-49
2022/07/23 04:57:19;;;;;;;23.17;16.30;;;;;;;;;;5053821;28;20375;-49
2022/07/23 04:59:45;;;;;;;21.93;16.23;;;;;;;;;;5049878;28;20448;-50
2022/07/23 05:02:11;;;;;;;22.87;16.40;;;;;;;;;;5052556;28;20902;-51
2022/07/23 05:04:38;;;;;;;22.80;16.50;;;;;;;;;;5052162;28;20742;-50
2022/07/23 05:07:04;;;;;;;27.70;17.70;;;;;;;;;;5053672;28;20430;-50
2022/07/23 05:09:30;;;;;;;24.07;18.43;;;;;;;;;;5052030;28;20813;-50
2022/07/23 05:11:57;;;;;;;22.10;16.40;;;;;;;;;;5043345;28;20402;-50
2022/07/23 05:14:23;;;;;;;27.27;16.73;;;;;;;;;;5032671;28;20833;-50
2022/07/23 05:16:49;;;;;;;24.40;16.57;;;;;;;;;;5041679;28;20505;-50
2022/07/23 05:19:15;;;;;;;23.10;16.37;;;;;;;;;;5040882;28;20405;-50
2022/07/23 05:21:41;;;;;;;24.63;16.97;;;;;;;;;;5035764;28;20398;-50
2022/07/23 05:24:07;;;;;;;28.97;18.80;;;;;;;;;;5033239;28;20436;-50
2022/07/23 05:26:33;;;;;;;27.23;18.67;;;;;;;;;;5037130;28;20434;-50
2022/07/23 05:28:59;;;;;;;24.60;18.20;;;;;;;;;;5034250;28;20450;-50
2022/07/23 05:31:25;;;;;;;30.97;17.77;;;;;;;;;;5048262;28;20895;-51
2022/07/23 05:33:51;;;;;;;24.97;17.90;;;;;;;;;;5035727;28;20473;-51
2022/07/23 05:36:17;;;;;;;26.53;18.80;;;;;;;;;;5047452;28;20402;-50
2022/07/23 05:38:43;;;;;;;22.43;17.73;;;;;;;;;;5032451;28;20448;-49
2022/07/23 05:41:08;;;;;;;30.83;20.30;;;;;;;;;;5033456;28;20439;-50
2022/07/23 05:43:34;;;;;;;27.47;20.80;;;;;;;;;;5032907;28;20388;-51
2022/07/23 05:46:00;;;;;;;31.57;20.93;;;;;;;;;;5033696;28;20426;-51
2022/07/23 05:48:26;;;;;;;28.73;19.97;;;;;;;;;;5032980;28;20448;-50
2022/07/23 05:50:53;;;;;;;24.37;19.70;;;;;;;;;;5049205;28;20436;-50
2022/07/23 05:53:19;;;;;;;28.63;20.50;;;;;;;;;;5033476;28;20432;-51
2022/07/23 05:55:45;;;;;;;33.33;22.07;;;;;;;;;;5043680;28;20425;-51
2022/07/23 05:58:11;;;;;;;28.30;21.03;;;;;;;;;;5036118;28;20462;-51
2022/07/23 06:00:37;;;;;;;36.37;23.23;;;;;;;;;;5052198;28;20412;-49
2022/07/23 06:03:03;;;;;;;32.63;22.53;;;;;;;;;;5044137;28;20471;-49
2022/07/23 06:05:29;;;;;;;34.57;22.33;;;;;;;;;;5043613;28;20408;-51
2022/07/23 06:07:55;;;;;;;28.87;20.33;;;;;;;;;;5035543;28;20441;-51
2022/07/23 06:10:21;;;;;;;31.53;21.40;;;;;;;;;;5037553;28;20407;-51
2022/07/23 06:12:47;;;;;;;31.50;20.93;;;;;;;;;;5033667;28;20960;-50
2022/07/23 06:15:13;;;;;;;28.10;19.93;;;;;;;;;;5027109;28;20461;-50
2022/07/23 06:17:39;;;;;;;28.30;21.47;;;;;;;;;;5033527;28;20414;-50
2022/07/23 06:20:06;;;;;;;32.60;21.90;;;;;;;;;;5030442;28;20505;-52
2022/07/23 06:22:32;;;;;;;29.57;21.67;;;;;;;;;;5034017;28;20875;-50
2022/07/23 06:24:58;;;;;;;35.03;23.47;;;;;;;;;;5032055;28;20407;-50
2022/07/23 06:27:24;;;;;;;32.47;21.80;;;;;;;;;;5052411;28;20409;-51
2022/07/23 06:29:50;;;;;;;30.13;21.63;;;;;;;;;;5052394;28;20458;-51
2022/07/23 06:32:16;;;;;;;30.73;21.73;;;;;;;;;;5050906;28;20916;-51
2022/07/23 06:34:42;;;;;;;31.07;21.80;;;;;;;;;;5045636;28;20432;-51
2022/07/23 06:37:08;;;;;;;32.60;22.57;;;;;;;;;;5031858;28;20415;-52
2022/07/23 06:39:34;;;;;;;31.03;23.10;;;;;;;;;;5020188;28;20964;-51
2022/07/23 06:42:01;;;;;;;38.50;23.30;;;;;;;;;;5033618;28;20516;-51
2022/07/23 06:44:27;;;;;;;29.87;22.80;;;;;;;;;;5031734;28;20407;-49
2022/07/23 06:46:53;;;;;;;36.10;20.97;;;;;;;;;;5036868;28;20928;-51
2022/07/23 06:49:19;;;;;;;33.67;23.20;;;;;;;;;;5031990;28;20438;-51
2022/07/23 06:51:45;;;;;;;35.37;24.00;;;;;;;;;;5052527;28;20399;-52
2022/07/23 06:54:11;;;;;;;35.37;25.27;;;;;;;;;;5043711;28;20456;-49
2022/07/23 06:56:37;;;;;;;38.60;24.00;;;;;;;;;;5049780;28;20481;-49
2022/07/23 06:59:03;;;;;;;33.87;23.27;;;;;;;;;;5040062;28;20439;-50
2022/07/23 07:01:29;;;;;;;29.57;22.57;;;;;;;;;;5030681;28;20407;-52
2022/07/23 07:03:55;;;;;;;28.00;21.17;;;;;;;;;;5031693;28;20424;-52
2022/07/23 07:06:21;;;;;;;28.20;19.80;;;;;;;;;;5031580;28;20568;-52
2022/07/23 07:08:47;;;;;;;33.47;20.93;;;;;;;;;;5033670;28;20541;-52
2022/07/23 07:11:13;;;;;;;34.17;21.63;;;;;;;;;;5040363;28;20580;-52
2022/07/23 07:13:39;;;;;;;30.97;22.70;;;;;;;;;;5045454;28;21036;-51
2022/07/23 07:16:05;;;;;;;25.97;21.37;;;;;;;;;;5039632;28;20424;-52
2022/07/23 07:18:31;;;;;;;31.63;23.37;;;;;;;;;;5051528;28;20422;-52
2022/07/23 07:20:57;;;;;;;34.93;23.93;;;;;;;;;;5038564;28;20439;-52
2022/07/23 07:23:24;;;;;;;29.13;23.17;;;;;;;;;;5037295;28;20423;-51
2022/07/23 07:25:50;;;;;;;25.90;22.30;;;;;;;;;;5029747;28;20436;-52
2022/07/23 07:28:16;;;;;;;28.60;22.73;;;;;;;;;;5031536;28;20803;-51
2022/07/23 07:30:42;;;;;;;28.30;20.60;;;;;;;;;;5040560;28;20442;-49
2022/07/23 07:33:08;;;;;;;29.43;21.57;;;;;;;;;;5032062;28;20949;-52
2022/07/23 07:35:34;;;;;;;33.47;21.77;;;;;;;;;;5039527;28;20436;-52
2022/07/23 07:38:00;;;;;;;24.30;19.10;;;;;;;;;;5032179;28;20457;-52
2022/07/23 07:40:26;;;;;;;27.47;19.53;;;;;;;;;;5030444;28;20512;-51
2022/07/23 07:42:53;;;;;;;26.77;20.77;;;;;;;;;;5028238;28;20494;-50
2022/07/23 07:45:23;;;;;;;26.40;18.87;;;;;;;;;;5037937;28;20440;-50
2022/07/23 07:47:49;;;;;;;25.37;18.63;;;;;;;;;;5032836;28;20436;-52
2022/07/23 07:50:15;;;;;;;23.27;19.70;;;;;;;;;;5037194;28;20463;-51
2022/07/23 07:52:42;;;;;;;25.77;21.00;;;;;;;;;;5033398;28;20530;-51
2022/07/23 07:55:09;;;;;;;29.43;21.60;;;;;;;;;;5035751;28;20428;-51
2022/07/23 07:57:35;;;;;;;27.43;20.60;;;;;;;;;;5038021;28;20501;-52
2022/07/23 08:00:01;;;;;;;34.27;21.67;;;;;;;;;;5040902;28;20948;-52
2022/07/23 08:02:27;;;;;;;27.07;18.97;;;;;;;;;;5055360;28;20506;-51
2022/07/23 08:04:53;;;;;;;26.43;18.60;;;;;;;;;;5047039;28;20802;-51
2022/07/23 08:07:19;;;;;;;24.60;20.33;;;;;;;;;;5034882;28;20424;-53
2022/07/23 08:09:45;;;;;;;22.50;17.43;;;;;;;;;;5037452;28;20445;-52
2022/07/23 08:12:11;;;;;;;20.90;17.20;;;;;;;;;;5051536;28;20416;-51
2022/07/23 08:14:37;;;;;;;21.33;17.20;;;;;;;;;;5049390;28;20512;-52
2022/07/23 08:17:03;;;;;;;20.13;15.97;;;;;;;;;;5052701;28;20421;-52
2022/07/23 08:19:29;;;;;;;14.87;13.37;;;;;;;;;;5046420;28;20968;-52
2022/07/23 08:21:55;;;;;;;15.63;12.50;;;;;;;;;;5034501;28;20422;-52
2022/07/23 08:24:21;;;;;;;16.27;13.67;;;;;;;;;;5044800;28;22246;-51
2022/07/23 08:26:47;;;;;;;14.10;12.60;;;;;;;;;;5044211;28;20918;-51
2022/07/23 08:29:13;;;;;;;10.90;8.43;;;;;;;;;;5033976;28;20503;-52
2022/07/23 08:31:40;;;;;;;8.90;8.00;;;;;;;;;;5054835;28;20901;-51
2022/07/23 08:34:06;;;;;;;9.13;8.23;;;;;;;;;;5034044;28;20207;-49
2022/07/23 08:36:32;;;;;;;8.10;7.47;;;;;;;;;;5051486;28;20417;-52
2022/07/23 08:38:59;;;;;;;8.10;7.30;;;;;;;;;;5034756;28;20516;-52
2022/07/23 08:41:25;;;;;;;8.40;7.70;;;;;;;;;;5053108;28;20510;-51
2022/07/23 08:43:52;;;;;;;10.43;8.00;;;;;;;;;;5041514;28;20426;-51
2022/07/23 08:46:19;;;;;;;8.37;7.57;;;;;;;;;;5048572;28;20465;-51
2022/07/23 08:48:47;;;;;;;7.97;7.27;;;;;;;;;;5036476;28;20564;-52
2022/07/23 08:51:13;;;;;;;7.43;6.73;;;;;;;;;;5048070;28;20429;-50
2022/07/23 08:53:40;;;;;;;12.50;6.70;;;;;;;;;;5037903;28;20834;-51
2022/07/23 08:56:07;;;;;;;6.53;5.73;;;;;;;;;;5046766;28;20425;-51
2022/07/23 08:58:33;;;;;;;7.07;5.70;;;;;;;;;;5034335;28;20980;-51
2022/07/23 09:01:00;;;;;;;5.53;5.13;;;;;;;;;;5048823;28;20425;-52
2022/07/23 09:03:33;;;;;;;6.03;5.50;;;;;;;;;;5040060;28;20183;-51
2022/07/23 09:06:00;;;;;;;5.03;4.70;;;;;;;;;;5051017;28;20440;-51
2022/07/23 09:08:34;;;;;;;5.53;5.03;;;;;;;;;;5039041;28;20453;-50
2022/07/23 09:11:01;;;;;;;6.50;5.00;;;;;;;;;;5047791;28;20955;-51
2022/07/23 09:13:42;;;;;;;5.33;4.50;;;;;;;;;;5037967;28;21138;-51
2022/07/23 09:16:14;;;;;;;5.80;5.40;;;;;;;;;;5052432;28;20425;-52
2022/07/23 09:18:47;;;;;;;5.97;5.00;;;;;;;;;;5037592;28;20437;-52
2022/07/23 09:21:30;;;;;;;5.17;4.77;;;;;;;;;;5040490;28;20422;-52
2022/07/23 09:23:56;;;;;;;8.53;5.50;;;;;;;;;;5036916;28;20418;-51
2022/07/23 09:26:34;;;;;;;6.17;5.67;;;;;;;;;;5048399;28;20486;-50
2022/07/23 09:29:01;;;;;;;6.23;5.63;;;;;;;;;;5034917;28;20519;-50
2022/07/23 09:31:32;;;;;;;8.07;7.37;;;;;;;;;;5034023;28;20403;-52
2022/07/23 09:34:17;;;;;;;9.10;7.87;;;;;;;;;;5034655;28;20549;-52
2022/07/23 09:36:43;;;;;;;5.77;5.17;;;;;;;;;;5034130;28;20801;-51
2022/07/23 09:39:09;;;;;;;9.07;7.97;;;;;;;;;;5032772;28;20481;-51
2022/07/23 09:41:37;;;;;;;7.53;6.93;;;;;;;;;;5042440;28;20425;-52
2022/07/23 09:44:13;;;;;;;6.20;5.60;;;;;;;;;;5034622;28;20450;-51
2022/07/23 09:46:39;;;;;;;9.60;5.10;;;;;;;;;;5033637;28;20401;-51
2022/07/23 09:49:16;;;;;;;5.50;5.10;;;;;;;;;;5033448;28;20945;-52
2022/07/23 09:51:53;;;;;;;6.67;6.07;;;;;;;;;;5033985;28;20398;-51
2022/07/23 09:54:22;;;;;;;6.93;6.43;;;;;;;;;;5031258;28;20898;-51
2022/07/23 09:56:48;;;;;;;7.07;6.37;;;;;;;;;;5050661;28;20467;-52
2022/07/23 09:59:19;;;;;;;5.53;5.10;;;;;;;;;;5035534;28;20429;-52
2022/07/23 10:01:46;;;;;;;4.30;4.00;;;;;;;;;;5051753;28;20554;-50
2022/07/23 10:04:13;;;;;;;6.10;5.70;;;;;;;;;;5032717;28;20456;-50
2022/07/23 10:06:40;;;;;;;5.10;4.60;;;;;;;;;;5034635;28;20513;-50
2022/07/23 10:09:07;;;;;;;4.97;4.47;;;;;;;;;;5032621;28;20199;-51
2022/07/23 10:11:34;;;;;;;5.50;5.20;;;;;;;;;;5046924;28;20556;-50
2022/07/23 10:14:03;;;;;;;5.43;5.03;;;;;;;;;;5035835;28;20458;-50
2022/07/23 10:16:29;;;;;;;5.40;4.97;;;;;;;;;;5043366;28;20428;-51
2022/07/23 10:18:55;;;;;;;4.00;3.70;;;;;;;;;;5036305;28;20434;-50
2022/07/23 10:21:36;;;;;;;3.00;2.90;;;;;;;;;;5045544;28;20440;-49
2022/07/23 10:24:07;;;;;;;5.40;5.00;;;;;;;;;;5036750;28;20425;-50
2022/07/23 10:26:39;;;;;;;5.33;4.90;;;;;;;;;;5045647;28;20520;-49
2022/07/23 10:29:23;;;;;;;4.13;3.80;;;;;;;;;;5035158;28;20477;-50
2022/07/23 10:31:52;;;;;;;3.83;3.57;;;;;;;;;;5047344;28;20443;-50
2022/07/23 10:34:24;;;;;;;3.53;3.23;;;;;;;;;;5034028;28;20472;-50
2022/07/23 10:36:51;;;;;;;3.87;3.57;;;;;;;;;;5051248;28;20429;-49
2022/07/23 10:39:23;;;;;;;3.40;3.20;;;;;;;;;;5033882;28;20490;-50
2022/07/23 10:41:49;;;;;;;4.30;3.90;;;;;;;;;;5049042;28;20431;-49
2022/07/23 10:44:16;;;;;;;3.53;3.23;;;;;;;;;;5033172;28;20910;-51
2022/07/23 10:47:07;;;;;;;3.23;3.03;;;;;;;;;;5052393;28;20413;-51
2022/07/23 10:49:33;;;;;;;3.17;2.97;;;;;;;;;;5031456;28;20459;-50
2022/07/23 10:52:15;;;;;;;4.17;3.87;;;;;;;;;;5051412;28;20429;-51
2022/07/23 10:54:41;;;;;;;3.60;3.40;;;;;;;;;;5032497;28;20469;-51
2022/07/23 10:57:08;;;;;;;3.50;3.20;;;;;;;;;;5049386;28;20441;-50
2022/07/23 10:59:52;;;;;;;3.70;3.40;;;;;;;;;;5033514;28;20524;-49
2022/07/23 11:02:25;;;;;;;3.10;2.90;;;;;;;;;;5043488;28;20421;-51
2022/07/23 11:04:52;;;;;;;4.13;3.77;;;;;;;;;;5035442;28;20440;-50
2022/07/23 11:07:19;;;;;;;3.40;2.40;;;;;;;;;;5052512;28;20397;-50
2022/07/23 11:09:47;;;;;;;3.50;2.97;;;;;;;;;;5035417;28;20968;-48
2022/07/23 11:12:22;;;;;;;3.47;3.20;;;;;;;;;;5052633;28;20398;-49
2022/07/23 11:15:03;;;;;;;3.30;3.10;;;;;;;;;;5036896;28;20464;-49
2022/07/23 11:17:30;;;;;;;3.27;2.97;;;;;;;;;;5052487;28;20409;-50
2022/07/23 11:20:11;;;;;;;2.50;2.40;;;;;;;;;;5040584;28;20445;-48
2022/07/23 11:22:47;;;;;;;2.77;2.57;;;;;;;;;;5032426;28;20406;-51
2022/07/23 11:25:14;;;;;;;3.27;3.07;;;;;;;;;;5033195;28;20421;-49
2022/07/23 11:27:41;;;;;;;2.33;2.20;;;;;;;;;;5032089;28;20398;-50
2022/07/23 11:30:08;;;;;;;3.17;2.97;;;;;;;;;;5039004;28;20433;-51
2022/07/23 11:32:38;;;;;;;6.13;3.20;;;;;;;;;;5052401;28;20418;-51
2022/07/23 11:35:18;;;;;;;3.23;3.00;;;;;;;;;;5036174;28;20421;-50
2022/07/23 11:37:45;;;;;;;2.87;2.60;;;;;;;;;;5038791;28;20449;-50
2022/07/23 11:40:12;;;;;;;3.43;2.30;;;;;;;;;;5043589;28;21015;-50
2022/07/23 11:42:39;;;;;;;3.00;2.80;;;;;;;;;;5055844;28;20440;-51
2022/07/23 11:45:06;;;;;;;5.37;2.90;;;;;;;;;;5040396;28;20944;-48
2022/07/23 11:47:32;;;;;;;2.40;2.20;;;;;;;;;;5054983;28;20769;-50
2022/07/23 11:49:59;;;;;;;2.43;2.33;;;;;;;;;;5037019;28;20409;-48
2022/07/23 11:52:25;;;;;;;2.40;2.30;;;;;;;;;;5054805;28;20408;-49
2022/07/23 11:55:03;;;;;;;2.60;1.80;;;;;;;;;;5043224;28;20453;-48
2022/07/23 11:57:30;;;;;;;2.43;2.23;;;;;;;;;;5054854;28;20479;-48
2022/07/23 11:59:57;;;;;;;2.77;2.57;;;;;;;;;;5044637;28;20441;-48
2022/07/23 12:02:24;;;;;;;1.83;1.73;;;;;;;;;;5034797;28;20402;-49
2022/07/23 12:04:51;;;;;;;2.87;2.67;;;;;;;;;;5034087;28;20984;-48
2022/07/23 12:07:23;;;;;;;2.10;1.90;;;;;;;;;;5034740;28;20446;-49
2022/07/23 12:09:49;;;;;;;7.00;3.13;;;;;;;;;;5040845;28;20437;-48
2022/07/23 12:12:15;;;;;;;2.60;2.40;;;;;;;;;;5054651;28;20432;-48
2022/07/23 12:15:07;;;;;;;2.33;2.00;;;;;;;;;;5045350;28;20945;-48
2022/07/23 12:17:35;;;;;;;4.00;3.40;;;;;;;;;;5032494;28;20414;-49
2022/07/23 12:20:04;;;;;;;3.50;3.13;;;;;;;;;;5046915;28;20424;-48
2022/07/23 12:22:35;;;;;;;2.67;2.47;;;;;;;;;;5054365;28;20924;-50
2022/07/23 12:25:02;;;;;;;4.60;2.67;;;;;;;;;;5047562;28;20492;-50
2022/07/23 12:27:29;;;;;;;2.27;1.80;;;;;;;;;;5047046;28;20482;-49
2022/07/23 12:29:55;;;;;;;3.63;2.40;;;;;;;;;;5043721;28;20575;-48
2022/07/23 12:32:28;;;;;;;2.80;2.60;;;;;;;;;;5054259;28;20409;-48
2022/07/23 12:35:05;;;;;;;2.70;2.20;;;;;;;;;;5041987;28;20418;-50
2022/07/23 12:37:41;;;;;;;2.37;2.27;;;;;;;;;;5034071;28;20433;-48
2022/07/23 12:40:19;;;;;;;1.90;1.80;;;;;;;;;;5035540;28;20927;-49
2022/07/23 12:42:46;;;;;;;2.40;1.80;;;;;;;;;;5033689;28;20394;-48
2022/07/23 12:45:13;;;;;;;2.43;2.00;;;;;;;;;;5040052;28;20513;-48
2022/07/23 12:48:08;;;;;;;2.30;2.13;;;;;;;;;;5034119;28;20548;-48
2022/07/23 12:50:40;;;;;;;2.37;2.13;;;;;;;;;;5026136;28;20497;-48
2022/07/23 12:53:07;;;;;;;2.50;2.30;;;;;;;;;;5040076;28;20465;-49
2022/07/23 12:55:33;;;;;;;3.80;2.60;;;;;;;;;;5040864;28;20424;-48
2022/07/23 12:58:05;;;;;;;2.10;1.90;;;;;;;;;;5044032;28;20441;-49
2022/07/23 13:00:31;;;;;;;1.90;1.80;;;;;;;;;;5042026;28;20418;-49
2022/07/23 13:02:57;;;;;;;5.00;2.20;;;;;;;;;;5033235;28;20921;-48
2022/07/23 13:05:23;;;;;;;4.13;2.10;;;;;;;;;;5048864;28;20508;-48
2022/07/23 13:07:49;;;;;;;1.90;1.70;;;;;;;;;;5036683;28;20418;-48
2022/07/23 13:10:15;;;;;;;2.30;2.10;;;;;;;;;;5041407;28;20463;-48
2022/07/23 13:12:41;;;;;;;2.40;2.20;;;;;;;;;;5038429;28;20410;-48
2022/07/23 13:15:07;;;;;;;2.67;2.10;;;;;;;;;;5050128;28;20638;-50
2022/07/23 13:17:33;;;;;;;2.10;1.77;;;;;;;;;;5038384;28;20183;-49
2022/07/23 13:19:59;;;;;;;2.80;2.60;;;;;;;;;;5031830;28;20422;-49
2022/07/23 13:22:25;;;;;;;1.70;1.60;;;;;;;;;;5032703;28;20807;-48
2022/07/23 13:24:52;;;;;;;3.30;2.40;;;;;;;;;;5038496;28;20434;-48
2022/07/23 13:27:18;;;;;;;3.20;1.83;;;;;;;;;;5032975;28;22093;-48
2022/07/23 13:29:44;;;;;;;1.40;1.30;;;;;;;;;;5043372;28;20457;-48
2022/07/23 13:32:10;;;;;;;2.20;2.10;;;;;;;;;;5047654;28;20623;-48
2022/07/23 13:34:36;;;;;;;1.97;1.80;;;;;;;;;;5039194;28;21027;-49
2022/07/23 13:37:02;;;;;;;3.60;1.50;;;;;;;;;;5052986;28;20409;-48
2022/07/23 13:39:28;;;;;;;1.80;1.70;;;;;;;;;;5037752;28;20242;-48
2022/07/23 13:41:54;;;;;;;1.90;1.67;;;;;;;;;;5052953;28;20253;-49
2022/07/23 13:44:20;;;;;;;2.53;1.60;;;;;;;;;;5039730;28;20437;-50
2022/07/23 13:46:46;;;;;;;4.20;3.77;;;;;;;;;;5032621;28;20446;-50
2022/07/23 13:49:12;;;;;;;4.33;1.60;;;;;;;;;;5031904;28;20905;-51
2022/07/23 13:51:38;;;;;;;2.40;2.20;;;;;;;;;;5037529;28;20407;-49
2022/07/23 13:54:04;;;;;;;2.03;1.80;;;;;;;;;;5031917;28;20501;-49
2022/07/23 13:56:30;;;;;;;1.80;1.70;;;;;;;;;;5051025;28;20174;-48
2022/07/23 13:58:56;;;;;;;4.13;1.83;;;;;;;;;;5048456;28;20449;-48
2022/07/23 14:01:22;;;;;;;1.73;1.60;;;;;;;;;;5051769;28;20428;-49
2022/07/23 14:03:48;;;;;;;3.30;1.80;;;;;;;;;;5036488;28;20682;-48
2022/07/23 14:06:14;;;;;;;1.93;1.70;;;;;;;;;;5036156;28;20446;-48
2022/07/23 14:08:40;;;;;;;2.10;1.97;;;;;;;;;;5031835;28;20802;-48
2022/07/23 14:11:06;;;;;;;1.70;1.60;;;;;;;;;;5035098;28;20841;-49
2022/07/23 14:13:32;;;;;;;2.50;1.97;;;;;;;;;;5032496;28;20453;-48
2022/07/23 14:15:58;;;;;;;1.93;1.83;;;;;;;;;;5050334;28;20546;-50
2022/07/23 14:18:24;;;;;;;3.10;2.20;;;;;;;;;;5048930;28;20209;-50
2022/07/23 14:20:50;;;;;;;2.93;1.70;;;;;;;;;;5039362;28;20202;-48
2022/07/23 14:23:16;;;;;;;2.30;2.20;;;;;;;;;;5050060;28;20877;-49
2022/07/23 14:25:42;;;;;;;2.40;2.20;;;;;;;;;;5037133;28;20436;-48
2022/07/23 14:28:08;;;;;;;2.50;2.03;;;;;;;;;;5031238;28;20480;-48
2022/07/23 14:30:34;;;;;;;2.63;2.23;;;;;;;;;;5050408;28;20421;-48
2022/07/23 14:33:00;;;;;;;2.53;2.30;;;;;;;;;;5035345;28;20458;-48